sensor_id;sensor_type;location;lat;lon;timestamp;pressure;altitude;pressure_sealevel;temperature;humidity
37824;BME280;23667;43.246;26.576;2022-08-21T00:01:16;98824.34;;;21.88;100.00
37824;BME280;23667;43.246;26.576;2022-08-21T00:03:43;98834.31;;;21.95;100.00
37824;BME280;23667;43.246;26.576;2022-08-21T00:06:09;98824.22;;;21.89;100.00
37824;BME280;23667;43.246;26.576;2022-08-21T00:08:34;98820.28;;;21.84;100.00
37824;BME280;23667;43.246;26.576;2022-08-21T00:11:01;98819.31;;;21.85;100.00
37824;BME280;23667;43.246;26.576;2022-08-21T00:13:26;98813.03;;;21.86;100.00
37824;BME280;23667;43.246;26.576;2022-08-21T00:15:52;98805.75;;;21.78;100.00
37824;BME280;23667;43.246;26.576;2022-08-21T00:18:18;98803.88;;;21.69;100.00
37824;BME280;23667;43.246;26.576;2022-08-21T00:20:45;98798.66;;;21.57;100.00
37824;BME280;23667;43.246;26.576;2022-08-21T00:23:11;98802.69;;;21.52;100.00
37824;BME280;23667;43.246;26.576;2022-08-21T00:25:37;98798.25;;;21.62;100.00
37824;BME280;23667;43.246;26.576;2022-08-21T00:28:03;98801.03;;;21.51;100.00
37824;BME280;23667;43.246;26.576;2022-08-21T00:30:29;98800.41;;;21.47;100.00
37824;BME280;23667;43.246;26.576;2022-08-21T00:32:56;98799.91;;;21.53;100.00
37824;BME280;23667;43.246;26.576;2022-08-21T00:35:27;98806.44;;;21.28;100.00
37824;BME280;23667;43.246;26.576;2022-08-21T00:37:52;98810.19;;;21.47;100.00
37824;BME280;23667;43.246;26.576;2022-08-21T00:40:23;98805.06;;;21.34;100.00
37824;BME280;23667;43.246;26.576;2022-08-21T00:42:49;98806.13;;;21.22;100.00
37824;BME280;23667;43.246;26.576;2022-08-21T00:45:15;98811.69;;;21.19;100.00
37824;BME280;23667;43.246;26.576;2022-08-21T00:47:41;98802.81;;;21.29;100.00
37824;BME280;23667;43.246;26.576;2022-08-21T00:50:08;98808.97;;;21.30;100.00
37824;BME280;23667;43.246;26.576;2022-08-21T00:52:36;98807.78;;;21.23;100.00
37824;BME280;23667;43.246;26.576;2022-08-21T00:55:03;98804.19;;;21.24;100.00
37824;BME280;23667;43.246;26.576;2022-08-21T00:57:34;98807.69;;;21.24;100.00
37824;BME280;23667;43.246;26.576;2022-08-21T01:00:06;98801.94;;;21.40;100.00
37824;BME280;23667;43.246;26.576;2022-08-21T01:02:32;98794.34;;;21.56;100.00
37824;BME280;23667;43.246;26.576;2022-08-21T01:04:58;98794.88;;;21.50;100.00
37824;BME280;23667;43.246;26.576;2022-08-21T01:07:24;98787.22;;;21.57;100.00
37824;BME280;23667;43.246;26.576;2022-08-21T01:09:50;98779.91;;;21.49;100.00
37824;BME280;23667;43.246;26.576;2022-08-21T01:12:17;98788.28;;;21.45;100.00
37824;BME280;23667;43.246;26.576;2022-08-21T01:14:44;98769.22;;;21.61;100.00
37824;BME280;23667;43.246;26.576;2022-08-21T01:17:11;98774.56;;;21.70;100.00
37824;BME280;23667;43.246;26.576;2022-08-21T01:19:38;98763.00;;;21.71;100.00
37824;BME280;23667;43.246;26.576;2022-08-21T01:22:03;98762.53;;;21.66;100.00
37824;BME280;23667;43.246;26.576;2022-08-21T01:24:30;98758.91;;;21.67;100.00
37824;BME280;23667;43.246;26.576;2022-08-21T01:26:57;98758.03;;;21.57;100.00
37824;BME280;23667;43.246;26.576;2022-08-21T01:32:07;98758.09;;;21.36;100.00
37824;BME280;23667;43.246;26.576;2022-08-21T01:34:36;98764.75;;;21.09;100.00
37824;BME280;23667;43.246;26.576;2022-08-21T01:37:02;98775.47;;;21.08;100.00
37824;BME280;23667;43.246;26.576;2022-08-21T01:39:28;98774.38;;;20.89;100.00
37824;BME280;23667;43.246;26.576;2022-08-21T01:41:54;98759.81;;;20.84;100.00
37824;BME280;23667;43.246;26.576;2022-08-21T01:44:23;98759.78;;;20.95;100.00
37824;BME280;23667;43.246;26.576;2022-08-21T01:46:50;98757.13;;;20.95;100.00
37824;BME280;23667;43.246;26.576;2022-08-21T01:49:16;98757.13;;;20.95;100.00
37824;BME280;23667;43.246;26.576;2022-08-21T01:51:43;98745.16;;;21.01;100.00
37824;BME280;23667;43.246;26.576;2022-08-21T01:54:09;98743.34;;;21.01;100.00
37824;BME280;23667;43.246;26.576;2022-08-21T01:56:40;98751.88;;;21.05;100.00
37824;BME280;23667;43.246;26.576;2022-08-21T01:59:08;98751.50;;;21.09;100.00
37824;BME280;23667;43.246;26.576;2022-08-21T02:01:33;98741.53;;;21.02;100.00
37824;BME280;23667;43.246;26.576;2022-08-21T02:03:59;98744.50;;;21.08;100.00
37824;BME280;23667;43.246;26.576;2022-08-21T02:06:25;98746.19;;;21.09;100.00
37824;BME280;23667;43.246;26.576;2022-08-21T02:08:51;98752.53;;;21.18;100.00
37824;BME280;23667;43.246;26.576;2022-08-21T02:11:18;98751.91;;;21.14;100.00
37824;BME280;23667;43.246;26.576;2022-08-21T02:13:43;98749.88;;;21.18;100.00
37824;BME280;23667;43.246;26.576;2022-08-21T02:16:09;98743.69;;;21.18;100.00
37824;BME280;23667;43.246;26.576;2022-08-21T02:18:35;98743.53;;;21.09;100.00
37824;BME280;23667;43.246;26.576;2022-08-21T02:21:01;98748.97;;;21.08;100.00
37824;BME280;23667;43.246;26.576;2022-08-21T02:23:27;98748.75;;;21.00;100.00
37824;BME280;23667;43.246;26.576;2022-08-21T02:26:04;98756.66;;;20.90;100.00
37824;BME280;23667;43.246;26.576;2022-08-21T02:28:29;98754.28;;;20.87;100.00
37824;BME280;23667;43.246;26.576;2022-08-21T02:30:56;98758.28;;;20.81;100.00
37824;BME280;23667;43.246;26.576;2022-08-21T02:33:22;98756.97;;;20.97;100.00
37824;BME280;23667;43.246;26.576;2022-08-21T02:35:48;98753.38;;;20.77;100.00
37824;BME280;23667;43.246;26.576;2022-08-21T02:38:17;98748.50;;;20.82;100.00
37824;BME280;23667;43.246;26.576;2022-08-21T02:40:45;98746.19;;;20.67;100.00
37824;BME280;23667;43.246;26.576;2022-08-21T02:43:11;98742.78;;;20.77;100.00
37824;BME280;23667;43.246;26.576;2022-08-21T02:45:37;98742.94;;;20.64;100.00
37824;BME280;23667;43.246;26.576;2022-08-21T02:48:06;98737.06;;;20.60;100.00
37824;BME280;23667;43.246;26.576;2022-08-21T02:50:39;98735.13;;;20.62;100.00
37824;BME280;23667;43.246;26.576;2022-08-21T02:53:07;98736.53;;;20.66;100.00
37824;BME280;23667;43.246;26.576;2022-08-21T02:55:34;98739.97;;;20.46;100.00
37824;BME280;23667;43.246;26.576;2022-08-21T02:58:03;98741.94;;;20.44;100.00
37824;BME280;23667;43.246;26.576;2022-08-21T03:00:31;98746.38;;;20.43;100.00
37824;BME280;23667;43.246;26.576;2022-08-21T03:02:58;98741.94;;;20.44;100.00
37824;BME280;23667;43.246;26.576;2022-08-21T03:05:24;98738.22;;;20.35;100.00
37824;BME280;23667;43.246;26.576;2022-08-21T03:07:50;98735.72;;;20.22;100.00
37824;BME280;23667;43.246;26.576;2022-08-21T03:10:18;98743.25;;;20.06;100.00
37824;BME280;23667;43.246;26.576;2022-08-21T03:12:45;98740.03;;;19.91;100.00
37824;BME280;23667;43.246;26.576;2022-08-21T03:15:15;98741.63;;;19.83;100.00
37824;BME280;23667;43.246;26.576;2022-08-21T03:17:42;98747.88;;;19.70;100.00
37824;BME280;23667;43.246;26.576;2022-08-21T03:20:09;98748.47;;;19.74;100.00
37824;BME280;23667;43.246;26.576;2022-08-21T03:22:35;98749.28;;;19.63;100.00
37824;BME280;23667;43.246;26.576;2022-08-21T03:25:00;98747.75;;;19.49;100.00
37824;BME280;23667;43.246;26.576;2022-08-21T03:27:28;98744.47;;;19.57;100.00
37824;BME280;23667;43.246;26.576;2022-08-21T03:29:54;98751.00;;;19.64;100.00
37824;BME280;23667;43.246;26.576;2022-08-21T03:32:20;98747.84;;;19.59;100.00
37824;BME280;23667;43.246;26.576;2022-08-21T03:34:46;98744.00;;;19.52;100.00
37824;BME280;23667;43.246;26.576;2022-08-21T03:37:12;98745.94;;;19.50;100.00
37824;BME280;23667;43.246;26.576;2022-08-21T03:39:38;98751.22;;;19.50;100.00
37824;BME280;23667;43.246;26.576;2022-08-21T03:42:04;98755.78;;;19.59;100.00
37824;BME280;23667;43.246;26.576;2022-08-21T03:44:30;98752.69;;;19.65;100.00
37824;BME280;23667;43.246;26.576;2022-08-21T03:46:57;98747.66;;;19.73;100.00
37824;BME280;23667;43.246;26.576;2022-08-21T03:49:23;98750.97;;;19.75;100.00
37824;BME280;23667;43.246;26.576;2022-08-21T03:51:48;98750.88;;;19.77;100.00
37824;BME280;23667;43.246;26.576;2022-08-21T03:54:14;98759.41;;;19.92;100.00
37824;BME280;23667;43.246;26.576;2022-08-21T03:56:40;98750.84;;;19.99;100.00
37824;BME280;23667;43.246;26.576;2022-08-21T03:59:05;98750.44;;;20.15;100.00
37824;BME280;23667;43.246;26.576;2022-08-21T04:01:31;98752.84;;;20.18;100.00
37824;BME280;23667;43.246;26.576;2022-08-21T04:03:57;98753.56;;;20.20;100.00
37824;BME280;23667;43.246;26.576;2022-08-21T04:06:23;98755.84;;;20.14;100.00
37824;BME280;23667;43.246;26.576;2022-08-21T04:08:48;98761.25;;;20.23;100.00
37824;BME280;23667;43.246;26.576;2022-08-21T04:11:14;98760.72;;;20.41;100.00
37824;BME280;23667;43.246;26.576;2022-08-21T04:13:40;98755.84;;;20.57;100.00
37824;BME280;23667;43.246;26.576;2022-08-21T04:16:06;98753.78;;;20.61;100.00
37824;BME280;23667;43.246;26.576;2022-08-21T04:18:32;98756.31;;;20.62;100.00
37824;BME280;23667;43.246;26.576;2022-08-21T04:20:58;98753.13;;;20.80;100.00
37824;BME280;23667;43.246;26.576;2022-08-21T04:23:25;98764.50;;;20.71;100.00
37824;BME280;23667;43.246;26.576;2022-08-21T04:25:52;98761.75;;;20.82;100.00
37824;BME280;23667;43.246;26.576;2022-08-21T04:28:18;98748.75;;;21.00;100.00
37824;BME280;23667;43.246;26.576;2022-08-21T04:30:54;98759.03;;;21.14;100.00
37824;BME280;23667;43.246;26.576;2022-08-21T04:33:23;98748.41;;;21.35;100.00
37824;BME280;23667;43.246;26.576;2022-08-21T04:35:49;98745.66;;;21.37;100.00
37824;BME280;23667;43.246;26.576;2022-08-21T04:38:16;98742.59;;;21.41;100.00
37824;BME280;23667;43.246;26.576;2022-08-21T04:40:41;98743.41;;;21.63;100.00
37824;BME280;23667;43.246;26.576;2022-08-21T04:43:11;98743.97;;;21.66;100.00
37824;BME280;23667;43.246;26.576;2022-08-21T04:45:41;98748.72;;;21.72;100.00
37824;BME280;23667;43.246;26.576;2022-08-21T04:48:09;98741.81;;;22.00;100.00
37824;BME280;23667;43.246;26.576;2022-08-21T04:50:45;98740.75;;;22.13;100.00
37824;BME280;23667;43.246;26.576;2022-08-21T04:53:22;98745.41;;;22.40;100.00
37824;BME280;23667;43.246;26.576;2022-08-21T04:55:50;98741.75;;;22.51;100.00
37824;BME280;23667;43.246;26.576;2022-08-21T04:58:20;98737.44;;;22.69;100.00
37824;BME280;23667;43.246;26.576;2022-08-21T05:00:47;98727.88;;;22.86;100.00
37824;BME280;23667;43.246;26.576;2022-08-21T05:03:16;98733.75;;;22.80;100.00
37824;BME280;23667;43.246;26.576;2022-08-21T05:05:42;98732.50;;;23.03;100.00
37824;BME280;23667;43.246;26.576;2022-08-21T05:08:12;98727.09;;;23.32;100.00
37824;BME280;23667;43.246;26.576;2022-08-21T05:10:40;98735.50;;;23.37;100.00
37824;BME280;23667;43.246;26.576;2022-08-21T05:13:07;98730.19;;;23.28;100.00
37824;BME280;23667;43.246;26.576;2022-08-21T05:15:32;98725.19;;;23.15;100.00
37824;BME280;23667;43.246;26.576;2022-08-21T05:17:58;98732.63;;;23.11;100.00
37824;BME280;23667;43.246;26.576;2022-08-21T05:20:23;98735.13;;;23.13;100.00
37824;BME280;23667;43.246;26.576;2022-08-21T05:22:49;98735.13;;;23.13;100.00
37824;BME280;23667;43.246;26.576;2022-08-21T05:25:15;98746.53;;;22.96;100.00
37824;BME280;23667;43.246;26.576;2022-08-21T05:27:41;98744.25;;;23.10;100.00
37824;BME280;23667;43.246;26.576;2022-08-21T05:30:08;98731.13;;;23.46;100.00
37824;BME280;23667;43.246;26.576;2022-08-21T05:32:35;98729.41;;;23.55;100.00
37824;BME280;23667;43.246;26.576;2022-08-21T05:35:04;98721.88;;;24.23;100.00
37824;BME280;23667;43.246;26.576;2022-08-21T05:37:29;98715.81;;;24.93;100.00
37824;BME280;23667;43.246;26.576;2022-08-21T05:39:55;98715.19;;;25.85;100.00
37824;BME280;23667;43.246;26.576;2022-08-21T05:42:21;98720.56;;;27.88;100.00
37824;BME280;23667;43.246;26.576;2022-08-21T05:44:46;98714.50;;;30.20;100.00
37824;BME280;23667;43.246;26.576;2022-08-21T05:47:12;98703.63;;;32.24;100.00
37824;BME280;23667;43.246;26.576;2022-08-21T05:49:37;98705.09;;;33.52;100.00
37824;BME280;23667;43.246;26.576;2022-08-21T05:52:04;98705.88;;;34.75;88.30
37824;BME280;23667;43.246;26.576;2022-08-21T05:54:29;98701.78;;;36.08;80.88
37824;BME280;23667;43.246;26.576;2022-08-21T05:56:55;98710.63;;;37.22;73.04
37824;BME280;23667;43.246;26.576;2022-08-21T05:59:21;98702.91;;;37.95;68.05
37824;BME280;23667;43.246;26.576;2022-08-21T06:01:47;98708.56;;;38.05;65.09
37824;BME280;23667;43.246;26.576;2022-08-21T06:04:12;98709.31;;;37.89;64.14
37824;BME280;23667;43.246;26.576;2022-08-21T06:06:38;98709.72;;;38.09;63.30
37824;BME280;23667;43.246;26.576;2022-08-21T06:09:05;98710.75;;;38.82;60.86
37824;BME280;23667;43.246;26.576;2022-08-21T06:11:31;98711.72;;;39.10;58.48
37824;BME280;23667;43.246;26.576;2022-08-21T06:13:57;98715.50;;;39.26;56.80
37824;BME280;23667;43.246;26.576;2022-08-21T06:16:23;98712.66;;;39.76;54.83
37824;BME280;23667;43.246;26.576;2022-08-21T06:18:49;98714.03;;;40.55;51.86
37824;BME280;23667;43.246;26.576;2022-08-21T06:21:15;98715.56;;;39.48;52.96
37824;BME280;23667;43.246;26.576;2022-08-21T06:23:41;98721.91;;;39.53;53.10
37824;BME280;23667;43.246;26.576;2022-08-21T06:26:07;98717.53;;;40.18;51.37
37824;BME280;23667;43.246;26.576;2022-08-21T06:28:34;98719.72;;;40.81;50.37
37824;BME280;23667;43.246;26.576;2022-08-21T06:31:00;98717.63;;;41.30;48.88
37824;BME280;23667;43.246;26.576;2022-08-21T06:33:26;98717.19;;;40.42;49.00
37824;BME280;23667;43.246;26.576;2022-08-21T06:35:51;98727.75;;;39.84;49.84
37824;BME280;23667;43.246;26.576;2022-08-21T06:38:17;98721.16;;;39.02;50.49
37824;BME280;23667;43.246;26.576;2022-08-21T06:40:43;98717.19;;;38.59;52.24
37824;BME280;23667;43.246;26.576;2022-08-21T06:43:12;98725.31;;;39.66;50.61
37824;BME280;23667;43.246;26.576;2022-08-21T06:45:38;98726.81;;;41.09;48.13
37824;BME280;23667;43.246;26.576;2022-08-21T06:48:05;98725.81;;;40.93;47.68
37824;BME280;23667;43.246;26.576;2022-08-21T06:50:32;98726.56;;;39.97;48.06
37824;BME280;23667;43.246;26.576;2022-08-21T06:53:07;98728.75;;;40.81;47.92
37824;BME280;23667;43.246;26.576;2022-08-21T06:55:33;98721.44;;;41.24;47.09
37824;BME280;23667;43.246;26.576;2022-08-21T06:57:59;98710.75;;;41.86;46.38
37824;BME280;23667;43.246;26.576;2022-08-21T07:00:25;98715.28;;;42.33;45.13
37824;BME280;23667;43.246;26.576;2022-08-21T07:02:50;98713.31;;;41.02;45.57
37824;BME280;23667;43.246;26.576;2022-08-21T07:05:16;98714.72;;;41.47;45.58
37824;BME280;23667;43.246;26.576;2022-08-21T07:07:43;98709.94;;;40.25;46.98
37824;BME280;23667;43.246;26.576;2022-08-21T07:10:09;98716.81;;;41.35;45.64
37824;BME280;23667;43.246;26.576;2022-08-21T07:12:34;98712.31;;;42.75;44.02
37824;BME280;23667;43.246;26.576;2022-08-21T07:15:00;98712.22;;;41.46;44.20
37824;BME280;23667;43.246;26.576;2022-08-21T07:17:26;98712.31;;;42.80;43.70
37824;BME280;23667;43.246;26.576;2022-08-21T07:19:51;98708.03;;;43.59;41.60
37824;BME280;23667;43.246;26.576;2022-08-21T07:22:19;98707.06;;;42.33;43.15
37824;BME280;23667;43.246;26.576;2022-08-21T07:24:46;98708.75;;;39.72;45.01
37824;BME280;23667;43.246;26.576;2022-08-21T07:27:12;98703.41;;;40.04;45.76
37824;BME280;23667;43.246;26.576;2022-08-21T07:29:38;98693.88;;;39.80;46.19
37824;BME280;23667;43.246;26.576;2022-08-21T07:32:04;98692.38;;;40.48;45.37
37824;BME280;23667;43.246;26.576;2022-08-21T07:34:29;98691.34;;;40.55;44.83
37824;BME280;23667;43.246;26.576;2022-08-21T07:36:56;98684.97;;;40.17;46.13
37824;BME280;23667;43.246;26.576;2022-08-21T07:39:21;98683.75;;;40.02;45.78
37824;BME280;23667;43.246;26.576;2022-08-21T07:41:47;98679.00;;;40.79;44.97
37824;BME280;23667;43.246;26.576;2022-08-21T07:44:12;98678.19;;;41.26;45.52
37824;BME280;23667;43.246;26.576;2022-08-21T07:46:38;98668.91;;;41.32;44.25
37824;BME280;23667;43.246;26.576;2022-08-21T07:49:03;98676.69;;;41.03;44.07
37824;BME280;23667;43.246;26.576;2022-08-21T07:51:30;98676.41;;;41.47;43.88
37824;BME280;23667;43.246;26.576;2022-08-21T07:53:57;98676.47;;;41.63;43.21
37824;BME280;23667;43.246;26.576;2022-08-21T07:56:24;98663.03;;;41.61;43.43
37824;BME280;23667;43.246;26.576;2022-08-21T07:58:50;98662.31;;;41.23;43.64
37824;BME280;23667;43.246;26.576;2022-08-21T08:01:16;98661.63;;;39.33;45.52
37824;BME280;23667;43.246;26.576;2022-08-21T08:03:42;98653.47;;;38.15;47.16
37824;BME280;23667;43.246;26.576;2022-08-21T08:06:08;98656.97;;;37.70;48.82
37824;BME280;23667;43.246;26.576;2022-08-21T08:08:40;98645.25;;;37.17;50.99
37824;BME280;23667;43.246;26.576;2022-08-21T08:11:10;98649.75;;;36.11;54.13
37824;BME280;23667;43.246;26.576;2022-08-21T08:13:50;98650.91;;;35.18;56.11
37824;BME280;23667;43.246;26.576;2022-08-21T08:16:16;98643.97;;;34.28;60.65
37824;BME280;23667;43.246;26.576;2022-08-21T08:18:42;98645.84;;;33.51;62.25
37824;BME280;23667;43.246;26.576;2022-08-21T08:21:10;98638.03;;;33.23;64.40
37824;BME280;23667;43.246;26.576;2022-08-21T08:23:37;98633.59;;;33.87;61.08
37824;BME280;23667;43.246;26.576;2022-08-21T08:26:03;98636.41;;;32.95;66.04
37824;BME280;23667;43.246;26.576;2022-08-21T08:28:29;98631.84;;;33.02;66.77
37824;BME280;23667;43.246;26.576;2022-08-21T08:30:57;98635.97;;;32.92;65.78
37824;BME280;23667;43.246;26.576;2022-08-21T08:33:23;98625.63;;;33.02;67.84
37824;BME280;23667;43.246;26.576;2022-08-21T08:35:50;98628.56;;;32.67;67.12
37824;BME280;23667;43.246;26.576;2022-08-21T08:38:17;98620.19;;;32.09;69.10
37824;BME280;23667;43.246;26.576;2022-08-21T08:43:32;98617.28;;;30.94;74.83
37824;BME280;23667;43.246;26.576;2022-08-21T08:46:02;98613.94;;;30.92;75.56
37824;BME280;23667;43.246;26.576;2022-08-21T08:51:02;98602.25;;;31.20;74.30
37824;BME280;23667;43.246;26.576;2022-08-21T08:53:33;98607.97;;;31.38;76.09
37824;BME280;23667;43.246;26.576;2022-08-21T08:56:01;98600.13;;;31.09;77.27
37824;BME280;23667;43.246;26.576;2022-08-21T08:58:39;98607.72;;;30.35;82.86
37824;BME280;23667;43.246;26.576;2022-08-21T09:01:15;98597.72;;;30.57;82.53
37824;BME280;23667;43.246;26.576;2022-08-21T09:03:41;98595.97;;;30.71;82.19
37824;BME280;23667;43.246;26.576;2022-08-21T09:09:18;98592.28;;;31.14;82.94
37824;BME280;23667;43.246;26.576;2022-08-21T09:20:29;98587.03;;;30.14;79.45
37824;BME280;23667;43.246;26.576;2022-08-21T09:23:12;98571.13;;;30.41;79.46
37824;BME280;23667;43.246;26.576;2022-08-21T09:26:12;98576.78;;;30.03;78.95
37824;BME280;23667;43.246;26.576;2022-08-21T09:28:39;98572.69;;;30.07;83.08
37824;BME280;23667;43.246;26.576;2022-08-21T09:31:11;98565.28;;;30.66;82.16
37824;BME280;23667;43.246;26.576;2022-08-21T09:33:38;98553.22;;;31.31;79.14
37824;BME280;23667;43.246;26.576;2022-08-21T09:36:04;98554.78;;;31.67;79.07
37824;BME280;23667;43.246;26.576;2022-08-21T09:38:36;98551.03;;;31.68;78.23
37824;BME280;23667;43.246;26.576;2022-08-21T09:41:07;98549.97;;;31.56;74.97
37824;BME280;23667;43.246;26.576;2022-08-21T09:43:34;98540.72;;;31.71;71.94
37824;BME280;23667;43.246;26.576;2022-08-21T09:46:04;98535.16;;;32.00;71.99
37824;BME280;23667;43.246;26.576;2022-08-21T09:48:39;98542.63;;;32.11;72.45
37824;BME280;23667;43.246;26.576;2022-08-21T09:51:10;98542.22;;;32.14;71.21
37824;BME280;23667;43.246;26.576;2022-08-21T09:53:42;98550.47;;;31.86;70.18
37824;BME280;23667;43.246;26.576;2022-08-21T09:56:31;98542.78;;;31.76;69.52
37824;BME280;23667;43.246;26.576;2022-08-21T09:59:28;98540.25;;;31.55;69.48
37824;BME280;23667;43.246;26.576;2022-08-21T10:01:58;98534.03;;;31.47;72.98
37824;BME280;23667;43.246;26.576;2022-08-21T10:04:35;98529.22;;;31.43;72.92
37824;BME280;23667;43.246;26.576;2022-08-21T10:07:13;98538.44;;;31.14;71.49
37824;BME280;23667;43.246;26.576;2022-08-21T10:09:40;98537.16;;;30.68;72.20
37824;BME280;23667;43.246;26.576;2022-08-21T10:12:21;98522.41;;;30.64;70.51
37824;BME280;23667;43.246;26.576;2022-08-21T10:25:58;98522.75;;;29.98;69.85
37824;BME280;23667;43.246;26.576;2022-08-21T10:29:23;98527.00;;;29.86;71.16
37824;BME280;23667;43.246;26.576;2022-08-21T10:31:48;98520.13;;;30.26;71.90
37824;BME280;23667;43.246;26.576;2022-08-21T10:37:12;98512.47;;;30.93;70.25
37824;BME280;23667;43.246;26.576;2022-08-21T10:48:06;98501.50;;;31.69;62.76
37824;BME280;23667;43.246;26.576;2022-08-21T10:50:52;98494.66;;;31.80;61.64
37824;BME280;23667;43.246;26.576;2022-08-21T10:53:40;98491.88;;;31.33;65.02
37824;BME280;23667;43.246;26.576;2022-08-21T10:56:21;98491.75;;;31.55;65.29
37824;BME280;23667;43.246;26.576;2022-08-21T11:06:37;98481.59;;;31.77;60.22
37824;BME280;23667;43.246;26.576;2022-08-21T11:09:12;98483.91;;;32.13;59.66
37824;BME280;23667;43.246;26.576;2022-08-21T11:11:46;98476.00;;;32.31;59.18
37824;BME280;23667;43.246;26.576;2022-08-21T11:14:36;98470.59;;;32.31;58.10
37824;BME280;23667;43.246;26.576;2022-08-21T11:17:13;98467.50;;;31.68;57.33
37824;BME280;23667;43.246;26.576;2022-08-21T11:20:03;98457.97;;;31.65;57.64
37824;BME280;23667;43.246;26.576;2022-08-21T11:22:54;98452.38;;;32.13;61.58
37824;BME280;23667;43.246;26.576;2022-08-21T11:25:34;98441.16;;;32.23;60.26
37824;BME280;23667;43.246;26.576;2022-08-21T11:28:29;98443.44;;;32.06;59.91
37824;BME280;23667;43.246;26.576;2022-08-21T11:39:36;98428.34;;;31.99;60.74
37824;BME280;23667;43.246;26.576;2022-08-21T11:42:19;98430.50;;;32.55;59.27
37824;BME280;23667;43.246;26.576;2022-08-21T11:45:39;98428.91;;;32.85;57.87
37824;BME280;23667;43.246;26.576;2022-08-21T11:50:30;98414.22;;;33.45;54.70
37824;BME280;23667;43.246;26.576;2022-08-21T11:52:59;98416.81;;;33.33;54.82
37824;BME280;23667;43.246;26.576;2022-08-21T11:58:08;98415.69;;;33.16;55.60
37824;BME280;23667;43.246;26.576;2022-08-21T12:00:47;98406.81;;;33.65;54.86
37824;BME280;23667;43.246;26.576;2022-08-21T12:03:22;98400.19;;;34.30;53.10
37824;BME280;23667;43.246;26.576;2022-08-21T12:05:58;98407.09;;;34.07;52.62
37824;BME280;23667;43.246;26.576;2022-08-21T12:08:34;98406.47;;;33.80;53.88
37824;BME280;23667;43.246;26.576;2022-08-21T12:11:09;98399.34;;;33.36;55.82
37824;BME280;23667;43.246;26.576;2022-08-21T12:13:39;98401.34;;;33.47;55.74
37824;BME280;23667;43.246;26.576;2022-08-21T12:16:28;98393.53;;;33.64;55.83
37824;BME280;23667;43.246;26.576;2022-08-21T12:21:54;98379.69;;;33.53;55.30
37824;BME280;23667;43.246;26.576;2022-08-21T12:25:02;98374.66;;;32.94;56.26
37824;BME280;23667;43.246;26.576;2022-08-21T12:27:39;98371.19;;;32.48;56.73
37824;BME280;23667;43.246;26.576;2022-08-21T12:30:34;98376.16;;;32.45;56.03
37824;BME280;23667;43.246;26.576;2022-08-21T12:33:04;98377.34;;;32.55;56.02
37824;BME280;23667;43.246;26.576;2022-08-21T12:35:41;98379.00;;;32.56;57.01
37824;BME280;23667;43.246;26.576;2022-08-21T12:43:17;98358.31;;;33.20;57.76
37824;BME280;23667;43.246;26.576;2022-08-21T12:45:47;98364.06;;;32.60;54.90
37824;BME280;23667;43.246;26.576;2022-08-21T12:48:39;98355.28;;;32.72;55.00
37824;BME280;23667;43.246;26.576;2022-08-21T12:51:14;98355.34;;;32.58;55.51
37824;BME280;23667;43.246;26.576;2022-08-21T12:53:52;98352.44;;;32.60;54.01
37824;BME280;23667;43.246;26.576;2022-08-21T12:56:20;98360.25;;;32.68;53.34
37824;BME280;23667;43.246;26.576;2022-08-21T12:58:50;98358.03;;;32.58;53.81
37824;BME280;23667;43.246;26.576;2022-08-21T13:01:24;98356.81;;;32.54;55.77
37824;BME280;23667;43.246;26.576;2022-08-21T13:03:53;98350.03;;;32.77;55.80
37824;BME280;23667;43.246;26.576;2022-08-21T13:06:20;98353.75;;;32.82;55.09
37824;BME280;23667;43.246;26.576;2022-08-21T13:08:52;98348.25;;;33.02;55.70
37824;BME280;23667;43.246;26.576;2022-08-21T13:11:22;98350.53;;;33.30;55.12
37824;BME280;23667;43.246;26.576;2022-08-21T13:13:50;98355.03;;;33.43;54.36
37824;BME280;23667;43.246;26.576;2022-08-21T13:16:34;98351.72;;;33.66;54.72
37824;BME280;23667;43.246;26.576;2022-08-21T13:19:05;98345.00;;;33.94;52.67
37824;BME280;23667;43.246;26.576;2022-08-21T13:21:39;98339.84;;;34.11;51.36
37824;BME280;23667;43.246;26.576;2022-08-21T13:26:40;98343.03;;;34.01;51.18
37824;BME280;23667;43.246;26.576;2022-08-21T13:29:15;98352.25;;;33.25;52.11
37824;BME280;23667;43.246;26.576;2022-08-21T13:31:56;98343.56;;;32.84;52.08
37824;BME280;23667;43.246;26.576;2022-08-21T13:34:37;98348.72;;;32.54;51.86
37824;BME280;23667;43.246;26.576;2022-08-21T13:37:05;98347.09;;;32.47;51.38
37824;BME280;23667;43.246;26.576;2022-08-21T13:39:32;98342.66;;;32.66;51.02
37824;BME280;23667;43.246;26.576;2022-08-21T13:42:02;98344.34;;;32.53;51.00
37824;BME280;23667;43.246;26.576;2022-08-21T13:44:43;98351.66;;;32.33;51.32
37824;BME280;23667;43.246;26.576;2022-08-21T13:47:11;98349.06;;;32.13;52.05
37824;BME280;23667;43.246;26.576;2022-08-21T13:49:49;98354.69;;;31.85;54.27
37824;BME280;23667;43.246;26.576;2022-08-21T13:52:26;98369.84;;;31.33;60.17
37824;BME280;23667;43.246;26.576;2022-08-21T13:54:56;98357.94;;;30.26;71.60
37824;BME280;23667;43.246;26.576;2022-08-21T13:57:31;98369.22;;;29.80;81.75
37824;BME280;23667;43.246;26.576;2022-08-21T14:00:24;98367.13;;;29.54;91.45
37824;BME280;23667;43.246;26.576;2022-08-21T14:02:51;98370.81;;;29.24;96.79
37824;BME280;23667;43.246;26.576;2022-08-21T14:05:29;98367.41;;;28.94;99.56
37824;BME280;23667;43.246;26.576;2022-08-21T14:08:11;98360.16;;;28.73;100.00
37824;BME280;23667;43.246;26.576;2022-08-21T14:10:48;98360.22;;;28.29;100.00
37824;BME280;23667;43.246;26.576;2022-08-21T14:13:37;98361.00;;;28.08;100.00